Time;durP1;ratioP1;P1;durP2;ratioP2;P2;SDS_P1;SDS_P2;PMS_P1;PMS_P2;Temp;Humidity;BMP_temperature;BMP_pressure;BME280_temperature;BME280_humidity;BME280_pressure;Samples;Min_cycle;Max_cycle;Signal;HPM_P1;HPM_P2
2023/08/29 00:00:51;;;;;;;0.90;0.90;;;;;;;;;;5117708;28;20244;-65
2023/08/29 00:03:19;;;;;;;0.80;0.80;;;;;;;;;;5117998;28;20702;-62
2023/08/29 00:05:47;;;;;;;0.90;0.90;;;;;;;;;;5118066;28;20598;-63
2023/08/29 00:08:16;;;;;;;1.30;0.90;;;;;;;;;;5118037;28;20208;-63
2023/08/29 00:10:44;;;;;;;2.37;1.00;;;;;;;;;;5118166;28;20216;-64
2023/08/29 00:13:12;;;;;;;0.90;0.90;;;;;;;;;;5116984;28;20205;-62
2023/08/29 00:15:40;;;;;;;4.13;1.90;;;;;;;;;;5117826;28;20201;-63
2023/08/29 00:18:08;;;;;;;1.47;0.70;;;;;;;;;;5118383;28;20219;-67
2023/08/29 00:20:37;;;;;;;2.67;1.00;;;;;;;;;;5119273;28;20749;-67
2023/08/29 00:23:05;;;;;;;1.00;0.90;;;;;;;;;;5118053;28;20231;-68
2023/08/29 00:25:34;;;;;;;1.33;0.83;;;;;;;;;;5118021;28;20243;-68
2023/08/29 00:28:03;;;;;;;0.97;0.73;;;;;;;;;;5104087;28;20201;-68
2023/08/29 00:30:33;;;;;;;1.70;0.80;;;;;;;;;;5116563;28;20221;-68
2023/08/29 00:33:01;;;;;;;1.00;0.80;;;;;;;;;;5115162;28;20201;-68
2023/08/29 00:35:29;;;;;;;1.87;0.70;;;;;;;;;;5118222;28;20212;-68
2023/08/29 00:37:58;;;;;;;2.03;0.80;;;;;;;;;;5103310;28;20221;-68
2023/08/29 00:40:30;;;;;;;1.03;0.80;;;;;;;;;;5121771;28;20217;-68
2023/08/29 00:43:00;;;;;;;2.40;1.00;;;;;;;;;;5107789;28;20250;-67
2023/08/29 00:45:30;;;;;;;1.77;1.07;;;;;;;;;;5108960;28;20201;-69
2023/08/29 00:47:58;;;;;;;1.23;0.90;;;;;;;;;;5107663;28;20206;-69
2023/08/29 00:50:27;;;;;;;4.33;1.40;;;;;;;;;;5115421;28;20225;-69
2023/08/29 00:52:58;;;;;;;1.40;1.30;;;;;;;;;;5104433;28;20657;-69
2023/08/29 00:55:26;;;;;;;0.80;0.80;;;;;;;;;;5109016;28;20287;-69
2023/08/29 00:57:57;;;;;;;0.50;0.50;;;;;;;;;;5108061;28;20217;-68
2023/08/29 01:00:26;;;;;;;0.90;0.90;;;;;;;;;;5121181;28;20263;-67
2023/08/29 01:02:55;;;;;;;1.07;0.80;;;;;;;;;;5104585;28;20545;-67
2023/08/29 01:05:23;;;;;;;0.70;0.70;;;;;;;;;;5110868;28;20208;-67
2023/08/29 01:07:52;;;;;;;0.87;0.80;;;;;;;;;;5107358;28;20231;-68
2023/08/29 01:10:23;;;;;;;1.03;0.90;;;;;;;;;;5121289;28;20213;-68
2023/08/29 01:12:55;;;;;;;2.33;1.00;;;;;;;;;;5106940;28;20648;-68
2023/08/29 01:15:28;;;;;;;1.60;0.87;;;;;;;;;;5110440;28;20209;-67
2023/08/29 01:17:59;;;;;;;1.70;0.73;;;;;;;;;;5103352;28;20308;-68
2023/08/29 01:20:30;;;;;;;0.50;0.50;;;;;;;;;;5114407;28;20259;-68
2023/08/29 01:23:03;;;;;;;0.70;0.70;;;;;;;;;;5107151;28;20197;-67
2023/08/29 01:25:46;;;;;;;1.90;0.90;;;;;;;;;;5119572;28;20209;-67
2023/08/29 01:28:17;;;;;;;1.53;0.70;;;;;;;;;;5109872;28;20201;-67
2023/08/29 01:30:45;;;;;;;1.13;0.67;;;;;;;;;;5119710;28;20221;-68
2023/08/29 01:33:14;;;;;;;2.33;0.80;;;;;;;;;;5115963;28;20663;-69
2023/08/29 01:35:45;;;;;;;1.20;0.83;;;;;;;;;;5103497;28;20255;-67
2023/08/29 01:38:15;;;;;;;0.73;0.67;;;;;;;;;;5103093;28;20680;-69
2023/08/29 01:40:43;;;;;;;0.87;0.80;;;;;;;;;;5118304;28;20229;-69
2023/08/29 01:43:11;;;;;;;1.40;0.90;;;;;;;;;;5107426;28;20808;-69
2023/08/29 01:45:40;;;;;;;1.57;0.90;;;;;;;;;;5120629;28;20282;-69
2023/08/29 01:48:11;;;;;;;0.93;0.70;;;;;;;;;;5106365;28;20205;-68
2023/08/29 01:50:40;;;;;;;0.60;0.60;;;;;;;;;;5106640;28;20229;-68
2023/08/29 01:53:08;;;;;;;1.90;0.80;;;;;;;;;;5106010;28;20258;-68
2023/08/29 01:55:38;;;;;;;2.07;0.60;;;;;;;;;;5110376;28;20201;-68
2023/08/29 01:58:06;;;;;;;0.80;0.80;;;;;;;;;;5120436;28;20225;-69
2023/08/29 02:00:35;;;;;;;1.33;0.73;;;;;;;;;;5119844;28;20251;-68
2023/08/29 02:03:04;;;;;;;2.40;1.30;;;;;;;;;;5120810;28;20205;-68
2023/08/29 02:05:33;;;;;;;0.77;0.60;;;;;;;;;;5120336;28;21728;-68
2023/08/29 02:08:01;;;;;;;1.00;0.80;;;;;;;;;;5120254;28;20205;-67
2023/08/29 02:10:29;;;;;;;0.70;0.70;;;;;;;;;;5116094;28;20222;-67
2023/08/29 02:12:57;;;;;;;2.10;0.80;;;;;;;;;;5110373;28;20551;-68
2023/08/29 02:15:25;;;;;;;3.30;0.80;;;;;;;;;;5104636;28;20201;-69
2023/08/29 02:17:53;;;;;;;6.07;1.10;;;;;;;;;;5105271;28;20239;-69
2023/08/29 02:20:23;;;;;;;0.77;0.77;;;;;;;;;;5098824;28;20221;-69
2023/08/29 02:22:51;;;;;;;1.10;1.00;;;;;;;;;;5104731;28;20202;-69
2023/08/29 02:25:19;;;;;;;2.13;0.70;;;;;;;;;;5105785;28;20228;-69
2023/08/29 02:27:47;;;;;;;1.17;1.00;;;;;;;;;;5105952;28;20204;-69
2023/08/29 02:30:15;;;;;;;0.80;0.80;;;;;;;;;;5119549;28;20586;-69
2023/08/29 02:32:44;;;;;;;1.03;0.50;;;;;;;;;;5105448;28;20274;-69
2023/08/29 02:35:12;;;;;;;1.37;0.93;;;;;;;;;;5119792;28;20572;-69
2023/08/29 02:37:42;;;;;;;1.00;0.70;;;;;;;;;;5106094;27;20697;-69
2023/08/29 02:40:11;;;;;;;0.90;0.70;;;;;;;;;;5104401;28;20223;-68
2023/08/29 02:42:39;;;;;;;0.80;0.73;;;;;;;;;;5105624;27;20212;-69
2023/08/29 02:45:07;;;;;;;0.80;0.80;;;;;;;;;;5105568;28;20208;-69
2023/08/29 02:47:35;;;;;;;1.93;0.67;;;;;;;;;;5110394;28;20227;-69
2023/08/29 02:50:04;;;;;;;0.83;0.73;;;;;;;;;;5102001;28;20305;-69
2023/08/29 02:52:32;;;;;;;2.40;0.70;;;;;;;;;;5110016;28;20227;-69
2023/08/29 02:55:01;;;;;;;0.70;0.70;;;;;;;;;;5104983;28;20208;-69
2023/08/29 02:57:29;;;;;;;0.80;0.80;;;;;;;;;;5118657;28;20213;-69
2023/08/29 02:59:57;;;;;;;0.97;0.87;;;;;;;;;;5118828;28;20224;-69
2023/08/29 03:02:26;;;;;;;0.73;0.70;;;;;;;;;;5106655;28;20283;-69
2023/08/29 03:04:54;;;;;;;0.60;0.60;;;;;;;;;;5116975;28;20652;-69
2023/08/29 03:07:22;;;;;;;1.23;0.80;;;;;;;;;;5112033;28;20243;-69
2023/08/29 03:09:50;;;;;;;0.80;0.80;;;;;;;;;;5116012;28;20205;-69
2023/08/29 03:12:20;;;;;;;1.07;1.00;;;;;;;;;;5119307;28;20212;-69
2023/08/29 03:14:48;;;;;;;2.23;0.90;;;;;;;;;;5118780;28;20686;-69
2023/08/29 03:17:16;;;;;;;0.97;0.77;;;;;;;;;;5118842;28;20556;-69
2023/08/29 03:19:44;;;;;;;3.27;0.73;;;;;;;;;;5109858;28;20234;-68
2023/08/29 03:22:12;;;;;;;1.07;0.70;;;;;;;;;;5107577;28;20210;-68
2023/08/29 03:24:40;;;;;;;1.37;1.07;;;;;;;;;;5105161;28;20254;-68
2023/08/29 03:27:08;;;;;;;1.50;0.90;;;;;;;;;;5105036;28;20213;-70
2023/08/29 03:29:37;;;;;;;1.67;0.60;;;;;;;;;;5104266;28;20212;-68
2023/08/29 03:32:05;;;;;;;1.23;0.80;;;;;;;;;;5109590;28;20688;-67
2023/08/29 03:34:34;;;;;;;0.97;0.70;;;;;;;;;;5113897;28;20201;-66
2023/08/29 03:37:02;;;;;;;0.70;0.70;;;;;;;;;;5110384;28;20609;-68
2023/08/29 03:39:30;;;;;;;2.73;0.90;;;;;;;;;;5113269;28;20256;-68
2023/08/29 03:41:58;;;;;;;1.63;0.73;;;;;;;;;;5099908;28;20201;-68
2023/08/29 03:44:26;;;;;;;1.40;0.80;;;;;;;;;;5097987;28;20278;-68
2023/08/29 03:46:55;;;;;;;2.13;1.17;;;;;;;;;;5115039;28;20192;-67
2023/08/29 03:49:24;;;;;;;2.67;1.20;;;;;;;;;;5112177;28;20250;-67
2023/08/29 03:51:52;;;;;;;10.50;5.63;;;;;;;;;;5114136;28;20263;-68
2023/08/29 03:54:20;;;;;;;3.03;1.60;;;;;;;;;;5104443;28;20620;-68
2023/08/29 03:56:48;;;;;;;0.90;0.90;;;;;;;;;;5108028;28;20307;-67
2023/08/29 03:59:16;;;;;;;3.43;1.10;;;;;;;;;;5108383;28;20228;-67
2023/08/29 04:01:45;;;;;;;1.40;1.20;;;;;;;;;;5118118;28;20244;-67
2023/08/29 04:04:14;;;;;;;0.77;0.70;;;;;;;;;;5118353;28;20216;-67
2023/08/29 04:06:42;;;;;;;1.07;0.80;;;;;;;;;;5118248;28;20667;-69
2023/08/29 04:09:10;;;;;;;0.87;0.70;;;;;;;;;;5116449;28;20201;-68
2023/08/29 04:11:38;;;;;;;1.60;0.90;;;;;;;;;;5118471;28;20220;-69
2023/08/29 04:14:06;;;;;;;2.40;1.20;;;;;;;;;;5117570;28;20537;-69
2023/08/29 04:16:34;;;;;;;3.30;1.17;;;;;;;;;;5104490;28;20205;-67
2023/08/29 04:19:02;;;;;;;0.90;0.90;;;;;;;;;;5118212;28;20224;-69
2023/08/29 04:21:32;;;;;;;2.10;0.80;;;;;;;;;;5118340;28;20277;-67
2023/08/29 04:24:00;;;;;;;2.17;1.00;;;;;;;;;;5117771;28;20616;-68
2023/08/29 04:26:28;;;;;;;0.73;0.73;;;;;;;;;;5114116;28;20258;-67
2023/08/29 04:28:56;;;;;;;4.03;1.00;;;;;;;;;;5107040;28;20198;-67
2023/08/29 04:31:24;;;;;;;1.60;1.10;;;;;;;;;;5106551;28;20222;-68
2023/08/29 04:33:52;;;;;;;0.83;0.80;;;;;;;;;;5118305;28;20213;-67
2023/08/29 04:36:20;;;;;;;1.37;0.90;;;;;;;;;;5111979;28;20197;-67
2023/08/29 04:38:49;;;;;;;2.17;0.87;;;;;;;;;;5110070;28;20325;-69
2023/08/29 04:41:17;;;;;;;1.83;1.10;;;;;;;;;;5115460;28;20224;-67
2023/08/29 04:43:45;;;;;;;1.03;0.93;;;;;;;;;;5105322;28;20200;-68
2023/08/29 04:46:13;;;;;;;3.10;1.30;;;;;;;;;;5105613;28;20721;-69
2023/08/29 04:48:42;;;;;;;1.10;1.00;;;;;;;;;;5112696;28;20543;-67
2023/08/29 04:51:10;;;;;;;2.73;0.97;;;;;;;;;;5110700;28;20225;-69
2023/08/29 04:53:38;;;;;;;2.50;1.07;;;;;;;;;;5106045;28;20230;-69
2023/08/29 04:56:08;;;;;;;3.00;1.07;;;;;;;;;;5101152;28;20564;-69
2023/08/29 04:58:36;;;;;;;1.23;1.10;;;;;;;;;;5109882;28;20228;-70
2023/08/29 05:01:04;;;;;;;1.17;0.90;;;;;;;;;;5115359;28;20236;-70
2023/08/29 05:03:32;;;;;;;1.67;1.03;;;;;;;;;;5112197;28;20201;-69
2023/08/29 05:06:00;;;;;;;1.10;1.00;;;;;;;;;;5095521;28;20597;-70
2023/08/29 05:08:28;;;;;;;2.10;0.90;;;;;;;;;;5102166;28;20204;-68
2023/08/29 05:10:56;;;;;;;1.13;1.00;;;;;;;;;;5104369;28;20225;-68
2023/08/29 05:13:26;;;;;;;1.00;0.90;;;;;;;;;;5101726;28;20197;-70
2023/08/29 05:15:54;;;;;;;1.37;0.70;;;;;;;;;;5114170;28;20250;-69
2023/08/29 05:18:22;;;;;;;0.90;0.83;;;;;;;;;;5111318;28;20652;-69
2023/08/29 05:20:50;;;;;;;2.23;1.00;;;;;;;;;;5114993;28;20216;-68
2023/08/29 05:23:21;;;;;;;4.67;1.30;;;;;;;;;;5114386;28;20575;-71
2023/08/29 05:25:49;;;;;;;4.70;1.10;;;;;;;;;;5116060;28;20235;-71
2023/08/29 05:28:17;;;;;;;2.17;1.97;;;;;;;;;;5117415;28;20207;-70
2023/08/29 05:30:47;;;;;;;1.97;1.00;;;;;;;;;;5116985;28;20217;-69
2023/08/29 05:33:15;;;;;;;1.77;0.90;;;;;;;;;;5119750;28;20201;-69
2023/08/29 05:35:44;;;;;;;2.67;1.20;;;;;;;;;;5117310;28;20652;-70
2023/08/29 05:38:12;;;;;;;2.60;1.30;;;;;;;;;;5109786;28;20590;-70
2023/08/29 05:40:40;;;;;;;1.10;1.00;;;;;;;;;;5119932;28;20244;-68
2023/08/29 05:43:08;;;;;;;4.67;1.70;;;;;;;;;;5101000;28;20193;-68
2023/08/29 05:45:36;;;;;;;1.60;1.07;;;;;;;;;;5102332;28;20201;-70
2023/08/29 05:48:06;;;;;;;3.07;1.10;;;;;;;;;;5103441;28;20618;-70
2023/08/29 05:50:35;;;;;;;4.13;1.00;;;;;;;;;;5117285;28;20228;-70
2023/08/29 05:53:03;;;;;;;1.90;0.70;;;;;;;;;;5102182;28;20210;-70
2023/08/29 05:55:31;;;;;;;1.63;1.10;;;;;;;;;;5106303;28;20229;-70
2023/08/29 05:58:00;;;;;;;3.23;1.07;;;;;;;;;;5120595;28;20664;-70
2023/08/29 06:00:29;;;;;;;0.80;0.80;;;;;;;;;;5119670;28;20235;-70
2023/08/29 06:02:57;;;;;;;0.67;0.67;;;;;;;;;;5120728;28;20300;-70
2023/08/29 06:05:27;;;;;;;8.07;1.20;;;;;;;;;;5120388;28;20201;-70
2023/08/29 06:07:55;;;;;;;2.77;1.23;;;;;;;;;;5119626;28;20208;-70
2023/08/29 06:10:43;;;;;;;1.80;1.00;;;;;;;;;;5108013;28;20266;-70
2023/08/29 06:13:11;;;;;;;1.43;0.90;;;;;;;;;;5119887;28;20568;-69
2023/08/29 06:15:39;;;;;;;3.77;1.00;;;;;;;;;;5117667;28;20304;-70
2023/08/29 06:18:08;;;;;;;4.13;1.30;;;;;;;;;;5104410;28;20248;-70
2023/08/29 06:20:38;;;;;;;1.20;0.90;;;;;;;;;;5103390;28;20278;-69
2023/08/29 06:23:06;;;;;;;3.03;1.37;;;;;;;;;;5104549;28;20706;-69
2023/08/29 06:25:35;;;;;;;2.53;1.00;;;;;;;;;;5098398;28;20205;-69
2023/08/29 06:28:03;;;;;;;2.07;1.40;;;;;;;;;;5107108;28;20219;-70
2023/08/29 06:30:32;;;;;;;2.10;0.93;;;;;;;;;;5118058;28;20221;-69
2023/08/29 06:33:00;;;;;;;1.60;1.10;;;;;;;;;;5112606;28;20337;-69
2023/08/29 06:35:28;;;;;;;2.00;0.90;;;;;;;;;;5117998;28;20225;-69
2023/08/29 06:37:57;;;;;;;4.63;1.17;;;;;;;;;;5109933;28;20209;-69
2023/08/29 06:40:25;;;;;;;2.90;0.93;;;;;;;;;;5109153;28;20242;-69
2023/08/29 06:42:53;;;;;;;1.83;1.17;;;;;;;;;;5101171;28;20252;-67
2023/08/29 06:45:21;;;;;;;1.30;1.20;;;;;;;;;;5110968;28;20254;-68
2023/08/29 06:47:51;;;;;;;0.80;0.80;;;;;;;;;;5104673;28;20201;-67
2023/08/29 06:50:19;;;;;;;3.80;1.43;;;;;;;;;;5110358;28;20308;-66
2023/08/29 06:52:47;;;;;;;1.60;0.80;;;;;;;;;;5112720;28;20200;-63
2023/08/29 06:55:17;;;;;;;2.50;1.10;;;;;;;;;;5101066;28;20202;-64
2023/08/29 06:57:45;;;;;;;1.50;0.90;;;;;;;;;;5102394;28;20201;-63
2023/08/29 07:00:13;;;;;;;2.60;1.30;;;;;;;;;;5118756;28;20757;-64
2023/08/29 07:02:41;;;;;;;1.60;1.17;;;;;;;;;;5104878;28;20240;-62
2023/08/29 07:05:09;;;;;;;1.30;1.20;;;;;;;;;;5102792;28;20223;-63
2023/08/29 07:07:40;;;;;;;1.50;1.00;;;;;;;;;;5105037;28;20205;-63
2023/08/29 07:10:08;;;;;;;5.53;1.13;;;;;;;;;;5115695;28;20794;-62
2023/08/29 07:12:38;;;;;;;3.23;1.13;;;;;;;;;;5108966;28;20205;-62
2023/08/29 07:15:06;;;;;;;1.93;1.03;;;;;;;;;;5115491;28;20205;-62
2023/08/29 07:17:34;;;;;;;2.30;1.40;;;;;;;;;;5104745;28;20201;-63
2023/08/29 07:20:08;;;;;;;1.43;0.90;;;;;;;;;;5102425;28;20247;-64
2023/08/29 07:22:37;;;;;;;2.33;1.13;;;;;;;;;;5099914;28;20200;-64
2023/08/29 07:25:05;;;;;;;2.20;0.93;;;;;;;;;;5107824;28;20242;-64
2023/08/29 07:27:34;;;;;;;4.70;1.40;;;;;;;;;;5110856;28;20204;-64
2023/08/29 07:30:04;;;;;;;3.73;1.03;;;;;;;;;;5113449;28;20213;-64
2023/08/29 07:32:32;;;;;;;1.77;1.03;;;;;;;;;;5104768;28;20208;-65
2023/08/29 07:35:01;;;;;;;1.47;1.03;;;;;;;;;;5117539;28;20302;-64
2023/08/29 07:37:30;;;;;;;2.73;0.90;;;;;;;;;;5104613;28;20226;-64
2023/08/29 07:39:58;;;;;;;1.10;0.97;;;;;;;;;;5114037;28;20247;-64
2023/08/29 07:42:26;;;;;;;3.63;1.20;;;;;;;;;;5107727;28;20566;-65
2023/08/29 07:44:54;;;;;;;2.47;1.70;;;;;;;;;;5113685;28;20204;-64
2023/08/29 07:47:23;;;;;;;3.97;1.93;;;;;;;;;;5108463;28;20201;-63
2023/08/29 07:49:51;;;;;;;1.13;1.03;;;;;;;;;;5117838;28;20200;-65
2023/08/29 07:52:19;;;;;;;2.90;1.20;;;;;;;;;;5116946;28;20193;-63
2023/08/29 07:54:47;;;;;;;3.97;1.00;;;;;;;;;;5119652;27;20196;-63
2023/08/29 07:57:15;;;;;;;2.13;1.23;;;;;;;;;;5118287;28;20613;-62
2023/08/29 07:59:43;;;;;;;1.83;1.20;;;;;;;;;;5117893;28;20238;-63
2023/08/29 08:02:11;;;;;;;2.60;1.67;;;;;;;;;;5113543;28;20240;-63
2023/08/29 08:04:40;;;;;;;3.43;1.93;;;;;;;;;;5107062;28;20663;-63
2023/08/29 08:07:08;;;;;;;5.60;2.10;;;;;;;;;;5104349;28;20247;-64
2023/08/29 08:09:36;;;;;;;3.60;1.23;;;;;;;;;;5105675;28;20262;-65
2023/08/29 08:12:04;;;;;;;1.87;1.40;;;;;;;;;;5100541;28;20254;-64
2023/08/29 08:14:32;;;;;;;1.53;1.10;;;;;;;;;;5107563;28;20209;-64
2023/08/29 08:17:00;;;;;;;4.10;1.40;;;;;;;;;;5101668;28;20240;-64
2023/08/29 08:19:29;;;;;;;1.90;1.03;;;;;;;;;;5117371;28;20205;-64
2023/08/29 08:21:58;;;;;;;3.17;1.30;;;;;;;;;;5103697;28;20704;-64
2023/08/29 08:24:26;;;;;;;3.97;1.50;;;;;;;;;;5115009;28;20201;-65
2023/08/29 08:26:54;;;;;;;1.23;1.00;;;;;;;;;;5100569;28;20197;-66
2023/08/29 08:29:23;;;;;;;1.30;1.10;;;;;;;;;;5103856;28;20201;-67
2023/08/29 08:31:51;;;;;;;2.80;1.20;;;;;;;;;;5110895;28;20223;-67
2023/08/29 08:34:19;;;;;;;1.73;1.10;;;;;;;;;;5104740;28;20613;-69
2023/08/29 08:36:48;;;;;;;3.30;1.13;;;;;;;;;;5108975;28;20667;-69
2023/08/29 08:39:17;;;;;;;2.00;1.10;;;;;;;;;;5096111;28;20284;-70
2023/08/29 08:41:45;;;;;;;1.87;1.40;;;;;;;;;;5102710;28;20232;-69
2023/08/29 08:44:15;;;;;;;1.87;1.00;;;;;;;;;;5117324;28;20212;-67
2023/08/29 08:46:44;;;;;;;4.60;1.57;;;;;;;;;;5104382;28;20264;-68
2023/08/29 08:49:13;;;;;;;2.30;0.93;;;;;;;;;;5109056;28;20208;-64
2023/08/29 08:51:41;;;;;;;1.90;1.03;;;;;;;;;;5108152;28;20217;-64
2023/08/29 08:54:10;;;;;;;1.90;1.33;;;;;;;;;;5096347;28;20203;-65
2023/08/29 08:56:39;;;;;;;2.10;1.27;;;;;;;;;;5100136;28;20354;-65
2023/08/29 08:59:07;;;;;;;6.40;1.20;;;;;;;;;;5102581;28;20227;-65
2023/08/29 09:01:36;;;;;;;3.20;1.40;;;;;;;;;;5102029;28;20229;-65
2023/08/29 09:04:04;;;;;;;1.70;1.60;;;;;;;;;;5105110;28;20251;-63
2023/08/29 09:06:32;;;;;;;1.73;1.13;;;;;;;;;;5107703;28;20818;-65
2023/08/29 09:09:15;;;;;;;3.03;1.10;;;;;;;;;;5119367;28;20625;-63
2023/08/29 09:11:45;;;;;;;2.10;1.10;;;;;;;;;;5107846;28;20221;-64
2023/08/29 09:14:13;;;;;;;1.67;1.10;;;;;;;;;;5116468;28;20205;-65
2023/08/29 09:16:41;;;;;;;1.70;1.30;;;;;;;;;;5108609;28;20201;-64
2023/08/29 09:19:09;;;;;;;2.63;1.23;;;;;;;;;;5106401;28;20262;-63
2023/08/29 09:21:42;;;;;;;2.87;0.97;;;;;;;;;;5108747;28;20271;-64
2023/08/29 09:24:11;;;;;;;1.93;1.50;;;;;;;;;;5103328;28;20664;-65
2023/08/29 09:26:40;;;;;;;2.90;1.50;;;;;;;;;;5100463;28;20244;-64
2023/08/29 09:29:19;;;;;;;4.93;2.00;;;;;;;;;;5115194;28;20664;-67
2023/08/29 09:31:47;;;;;;;2.23;1.63;;;;;;;;;;5111410;28;20688;-67
2023/08/29 09:34:28;;;;;;;1.13;1.00;;;;;;;;;;5110871;28;20633;-68
2023/08/29 09:36:57;;;;;;;5.00;1.20;;;;;;;;;;5106594;28;20205;-68
2023/08/29 09:39:25;;;;;;;1.60;1.07;;;;;;;;;;5121039;28;20211;-65
2023/08/29 09:41:58;;;;;;;1.20;0.90;;;;;;;;;;5106447;27;20221;-65
2023/08/29 09:44:28;;;;;;;2.57;1.27;;;;;;;;;;5106655;28;20224;-64
2023/08/29 09:46:56;;;;;;;1.20;1.10;;;;;;;;;;5100928;28;20226;-64
2023/08/29 09:49:31;;;;;;;1.20;1.10;;;;;;;;;;5120861;28;20205;-65
2023/08/29 09:52:01;;;;;;;2.67;1.20;;;;;;;;;;5098753;28;20276;-65
2023/08/29 09:54:30;;;;;;;1.63;0.97;;;;;;;;;;5111675;28;20683;-64
2023/08/29 09:57:00;;;;;;;2.00;1.40;;;;;;;;;;5110018;28;20208;-64
2023/08/29 09:59:31;;;;;;;1.30;1.20;;;;;;;;;;5120410;28;20250;-64
2023/08/29 10:01:59;;;;;;;1.23;0.93;;;;;;;;;;5120046;28;20632;-64
2023/08/29 10:04:28;;;;;;;1.33;1.07;;;;;;;;;;5120284;28;20208;-64
2023/08/29 10:06:57;;;;;;;1.33;1.10;;;;;;;;;;5115261;28;20240;-64
2023/08/29 10:09:27;;;;;;;1.23;0.93;;;;;;;;;;5120158;28;20235;-65
2023/08/29 10:11:55;;;;;;;1.70;0.97;;;;;;;;;;5119613;28;20737;-64
2023/08/29 10:14:23;;;;;;;0.90;0.90;;;;;;;;;;5120057;28;20202;-64
2023/08/29 10:16:54;;;;;;;2.70;0.87;;;;;;;;;;5120029;27;20577;-64
2023/08/29 10:19:22;;;;;;;2.40;1.00;;;;;;;;;;5120026;28;20246;-65
2023/08/29 10:21:50;;;;;;;0.83;0.80;;;;;;;;;;5119795;27;20232;-64
2023/08/29 10:24:18;;;;;;;3.30;1.30;;;;;;;;;;5118809;27;20228;-65
2023/08/29 10:26:46;;;;;;;1.27;1.00;;;;;;;;;;5118851;28;20258;-65
2023/08/29 10:29:14;;;;;;;1.90;1.00;;;;;;;;;;5100332;28;20212;-65
2023/08/29 10:31:43;;;;;;;2.00;1.63;;;;;;;;;;5102415;28;20629;-65
2023/08/29 10:34:13;;;;;;;1.13;1.10;;;;;;;;;;5101682;28;20199;-65
2023/08/29 10:36:42;;;;;;;0.60;0.60;;;;;;;;;;5101448;28;20202;-65
2023/08/29 10:39:14;;;;;;;1.03;0.80;;;;;;;;;;5114598;28;20204;-65
2023/08/29 10:41:47;;;;;;;0.70;0.70;;;;;;;;;;5106160;28;20676;-65
2023/08/29 10:44:25;;;;;;;1.20;1.10;;;;;;;;;;5106279;28;20205;-65
2023/08/29 10:46:53;;;;;;;1.20;1.00;;;;;;;;;;5105483;28;20209;-65
2023/08/29 10:49:23;;;;;;;2.47;0.80;;;;;;;;;;5118502;28;20697;-65
2023/08/29 10:52:05;;;;;;;2.53;1.10;;;;;;;;;;5098211;28;20560;-65
2023/08/29 10:54:33;;;;;;;0.73;0.73;;;;;;;;;;5103629;28;20212;-65
2023/08/29 10:57:01;;;;;;;1.60;0.90;;;;;;;;;;5104911;28;20621;-65
2023/08/29 10:59:31;;;;;;;0.80;0.80;;;;;;;;;;5105864;28;20632;-65
2023/08/29 11:02:17;;;;;;;1.70;0.93;;;;;;;;;;5107571;28;20307;-65
2023/08/29 11:04:46;;;;;;;1.50;1.07;;;;;;;;;;5104995;28;20234;-65
2023/08/29 11:07:23;;;;;;;1.23;0.90;;;;;;;;;;5097920;28;20251;-64
2023/08/29 11:10:06;;;;;;;2.10;0.90;;;;;;;;;;5115151;28;20198;-64
2023/08/29 11:12:34;;;;;;;3.57;1.70;;;;;;;;;;5109164;28;20205;-65
2023/08/29 11:15:02;;;;;;;0.87;0.80;;;;;;;;;;5114451;28;20209;-65
2023/08/29 11:17:31;;;;;;;3.37;1.10;;;;;;;;;;5104745;28;20204;-65
2023/08/29 11:20:02;;;;;;;0.90;0.90;;;;;;;;;;5119031;28;20232;-65
2023/08/29 11:22:30;;;;;;;1.93;0.90;;;;;;;;;;5100395;28;20591;-64
2023/08/29 11:24:58;;;;;;;3.90;1.10;;;;;;;;;;5101231;28;20235;-65
2023/08/29 11:27:28;;;;;;;5.27;1.17;;;;;;;;;;5101823;28;20205;-66
2023/08/29 11:29:59;;;;;;;1.03;0.93;;;;;;;;;;5104201;28;20247;-66
2023/08/29 11:32:30;;;;;;;3.17;1.23;;;;;;;;;;5110789;28;20269;-65
2023/08/29 11:34:58;;;;;;;0.90;0.90;;;;;;;;;;5101256;28;20204;-65
2023/08/29 11:37:30;;;;;;;0.90;0.90;;;;;;;;;;5101392;28;20194;-66
2023/08/29 11:40:01;;;;;;;2.33;1.10;;;;;;;;;;5105838;28;20227;-66
2023/08/29 11:42:33;;;;;;;1.17;0.97;;;;;;;;;;5101697;28;20255;-65
2023/08/29 11:45:21;;;;;;;3.60;1.00;;;;;;;;;;5118796;28;20208;-65
2023/08/29 11:48:09;;;;;;;0.83;0.83;;;;;;;;;;5108625;28;20200;-64
2023/08/29 11:50:40;;;;;;;0.97;0.70;;;;;;;;;;5111082;28;20406;-65
2023/08/29 11:53:09;;;;;;;0.87;0.87;;;;;;;;;;5106178;28;20206;-65
2023/08/29 11:55:38;;;;;;;1.17;0.90;;;;;;;;;;5115442;28;20265;-65
2023/08/29 11:58:06;;;;;;;3.13;1.00;;;;;;;;;;5110201;28;20208;-65
2023/08/29 12:00:35;;;;;;;1.03;1.03;;;;;;;;;;5117671;28;20260;-65
2023/08/29 12:03:03;;;;;;;2.60;1.10;;;;;;;;;;5118310;28;20223;-65
2023/08/29 12:05:32;;;;;;;3.30;0.93;;;;;;;;;;5117353;28;20206;-65
2023/08/29 12:08:00;;;;;;;1.13;0.80;;;;;;;;;;5118033;28;20207;-65
2023/08/29 12:10:30;;;;;;;4.63;1.03;;;;;;;;;;5118200;28;20228;-65
2023/08/29 12:13:10;;;;;;;0.80;0.80;;;;;;;;;;5118350;28;20206;-66
2023/08/29 12:15:39;;;;;;;1.10;1.00;;;;;;;;;;5118989;28;20246;-64
2023/08/29 12:18:20;;;;;;;0.83;0.80;;;;;;;;;;5118256;28;20201;-64
2023/08/29 12:20:48;;;;;;;3.17;1.10;;;;;;;;;;5118149;28;20224;-64
2023/08/29 12:23:24;;;;;;;1.77;0.90;;;;;;;;;;5117554;28;20229;-64
2023/08/29 12:25:55;;;;;;;2.27;1.00;;;;;;;;;;5104982;28;20208;-64
2023/08/29 12:28:24;;;;;;;1.50;1.20;;;;;;;;;;5100293;28;20208;-64
2023/08/29 12:30:54;;;;;;;1.07;0.90;;;;;;;;;;5104775;28;20238;-64
2023/08/29 12:33:22;;;;;;;3.83;1.33;;;;;;;;;;5100818;28;20651;-64
2023/08/29 12:35:51;;;;;;;1.93;1.20;;;;;;;;;;5115029;28;20195;-64
2023/08/29 12:38:20;;;;;;;2.13;0.80;;;;;;;;;;5104204;28;20664;-64
2023/08/29 12:40:48;;;;;;;1.83;1.30;;;;;;;;;;5110136;28;20218;-64
2023/08/29 12:43:17;;;;;;;2.60;1.00;;;;;;;;;;5111874;28;20232;-64
2023/08/29 12:45:46;;;;;;;1.47;1.03;;;;;;;;;;5100693;28;20284;-64
2023/08/29 12:48:26;;;;;;;1.70;0.87;;;;;;;;;;5114349;28;20206;-64
2023/08/29 12:50:54;;;;;;;6.67;1.50;;;;;;;;;;5119459;28;20248;-64
2023/08/29 12:53:22;;;;;;;0.97;0.97;;;;;;;;;;5100655;28;20201;-64
2023/08/29 12:55:51;;;;;;;2.10;1.20;;;;;;;;;;5106908;28;20257;-64
2023/08/29 12:58:20;;;;;;;1.17;1.07;;;;;;;;;;5113530;28;20210;-64
2023/08/29 13:00:48;;;;;;;1.83;1.30;;;;;;;;;;5115901;27;20238;-66
2023/08/29 13:03:16;;;;;;;1.57;1.00;;;;;;;;;;5103984;28;20283;-65
2023/08/29 13:05:45;;;;;;;1.53;1.10;;;;;;;;;;5112514;28;20200;-66
2023/08/29 13:08:15;;;;;;;2.50;0.97;;;;;;;;;;5115000;28;20208;-65
2023/08/29 13:10:43;;;;;;;1.03;0.93;;;;;;;;;;5114987;28;20312;-65
2023/08/29 13:13:11;;;;;;;1.90;1.10;;;;;;;;;;5117672;28;20565;-64
2023/08/29 13:15:41;;;;;;;0.90;0.90;;;;;;;;;;5116728;28;20201;-65
2023/08/29 13:18:18;;;;;;;1.40;1.10;;;;;;;;;;5105866;28;20200;-65
2023/08/29 13:20:46;;;;;;;1.67;1.10;;;;;;;;;;5109427;28;20722;-65
2023/08/29 13:23:14;;;;;;;2.00;1.07;;;;;;;;;;5107824;28;20222;-66
2023/08/29 13:25:42;;;;;;;1.20;1.10;;;;;;;;;;5116320;28;20197;-65
2023/08/29 13:28:10;;;;;;;1.77;0.80;;;;;;;;;;5112388;28;20215;-65
2023/08/29 13:30:38;;;;;;;2.83;0.87;;;;;;;;;;5119872;28;20273;-65
2023/08/29 13:33:08;;;;;;;3.03;0.93;;;;;;;;;;5104914;28;20570;-65
2023/08/29 13:35:36;;;;;;;1.07;0.90;;;;;;;;;;5118745;28;20233;-65
2023/08/29 13:38:04;;;;;;;4.30;1.30;;;;;;;;;;5103546;28;20210;-65
2023/08/29 13:40:33;;;;;;;0.93;0.93;;;;;;;;;;5114935;28;20253;-65
2023/08/29 13:43:01;;;;;;;1.03;1.00;;;;;;;;;;5103838;28;20213;-65
2023/08/29 13:45:30;;;;;;;1.77;1.00;;;;;;;;;;5119999;28;20197;-65
2023/08/29 13:47:58;;;;;;;1.07;0.87;;;;;;;;;;5119793;28;20286;-64
2023/08/29 13:50:27;;;;;;;1.07;1.00;;;;;;;;;;5115472;28;20248;-65
2023/08/29 13:52:55;;;;;;;1.20;1.13;;;;;;;;;;5101064;28;20632;-65
2023/08/29 13:55:24;;;;;;;0.97;0.87;;;;;;;;;;5108835;28;20740;-65
2023/08/29 13:57:52;;;;;;;1.17;1.07;;;;;;;;;;5112971;28;20201;-66
2023/08/29 14:00:20;;;;;;;1.50;1.07;;;;;;;;;;5120018;28;20233;-64
2023/08/29 14:02:48;;;;;;;2.57;1.83;;;;;;;;;;5076565;28;20213;-65
2023/08/29 14:05:16;;;;;;;1.53;1.30;;;;;;;;;;5074285;28;20224;-65
2023/08/29 14:07:46;;;;;;;1.80;1.00;;;;;;;;;;5080142;28;20205;-65
2023/08/29 14:10:14;;;;;;;2.63;1.20;;;;;;;;;;5079636;28;20224;-65
2023/08/29 14:12:42;;;;;;;2.53;1.27;;;;;;;;;;5067175;28;20202;-65
2023/08/29 14:15:10;;;;;;;1.57;1.13;;;;;;;;;;5065505;28;20205;-65
2023/08/29 14:17:38;;;;;;;1.30;0.90;;;;;;;;;;5079936;28;20208;-65
2023/08/29 14:20:06;;;;;;;1.47;1.20;;;;;;;;;;5079457;28;20235;-64
2023/08/29 14:22:34;;;;;;;3.23;1.47;;;;;;;;;;5066647;28;20293;-65
2023/08/29 14:25:04;;;;;;;1.23;1.03;;;;;;;;;;5079358;28;20241;-64
2023/08/29 14:27:32;;;;;;;3.50;1.60;;;;;;;;;;5072472;28;20352;-64
2023/08/29 14:30:00;;;;;;;1.13;1.00;;;;;;;;;;5077295;28;20231;-64
2023/08/29 14:32:28;;;;;;;1.07;0.97;;;;;;;;;;5070476;28;20206;-64
2023/08/29 14:34:56;;;;;;;1.00;1.00;;;;;;;;;;5077199;28;20204;-64
2023/08/29 14:37:24;;;;;;;1.63;1.20;;;;;;;;;;5067114;28;20218;-65
2023/08/29 14:39:52;;;;;;;2.70;1.00;;;;;;;;;;5077446;28;20343;-64
2023/08/29 14:42:21;;;;;;;1.17;1.00;;;;;;;;;;5065035;28;20661;-64
2023/08/29 14:44:49;;;;;;;2.27;1.07;;;;;;;;;;5070231;28;20226;-65
2023/08/29 14:47:17;;;;;;;1.00;1.00;;;;;;;;;;5065831;28;20586;-65
2023/08/29 14:49:45;;;;;;;3.83;0.90;;;;;;;;;;5079054;28;20259;-65
2023/08/29 14:52:13;;;;;;;2.17;1.00;;;;;;;;;;5071063;28;20206;-65
2023/08/29 14:54:41;;;;;;;0.83;0.83;;;;;;;;;;5068047;28;20269;-65